EW3675 Weather Reports


time (UTC)temp
C
wind
direction
speed
KPH
gust
KPH
rain 1hr
cm
rain 24hr
cm
rain mn
cm
humidity
%
barometer
mb
20220525125936 15 283 8.0 20.9 0.00 2.90 0.66 96 1009.5
20220525125438 15 333 8.0 20.9 0.00 2.90 0.66 96 1009.4
20220525124934 15 296 9.7 20.9 0.00 2.90 0.66 96 1009.4
20220525124433 15 338 9.7 20.9 0.00 2.90 0.66 96 1009.3
20220525123935 15 289 9.7 20.9 0.00 2.90 0.66 96 1009.2
20220525123434 15 278 9.7 20.9 0.00 2.90 0.66 96 1009.3
20220525122934 15 281 9.7 20.9 0.00 2.90 0.66 96 1009.1
20220525122431 15 257 9.7 20.9 0.00 2.90 0.66 96 1009.1
20220525121930 15 271 9.7 24.1 0.00 2.90 0.66 96 1008.9
20220525121431 15 315 9.7 24.1 0.00 2.90 0.66 96 1008.7
20220525120931 15 275 9.7 24.1 0.00 2.90 0.66 96 1008.5
20220525120430 15 296 9.7 24.1 0.00 2.90 0.66 96 1008.3
20220525115923 15 311 11.3 22.5 0.00 2.90 0.66 96 1008.2
20220525115424 15 273 11.3 22.5 0.00 2.90 0.66 96 1008.2
20220525114924 16 271 11.3 22.5 0.00 2.90 0.66 96 1008.1
20220525114423 16 267 9.7 19.3 0.00 2.90 0.66 96 1007.9
20220525113922 16 271 6.4 17.7 0.00 2.90 0.66 96 1008.0
20220525113425 16 281 8.0 16.1 0.00 2.90 0.66 96 1007.9
20220525112922 16 317 8.0 16.1 0.00 2.90 0.66 96 1008.0
20220525112417 16 283 4.8 12.9 0.00 2.90 0.66 96 1007.9
20220525111916 15 298 4.8 12.9 0.00 2.90 0.66 96 1007.9
20220525111418 15 304 3.2 11.3 0.00 2.90 0.66 96 1007.9
20220525110918 15 276 3.2 6.4 0.00 2.90 0.66 96 1007.8
20220525110418 15 278 3.2 6.4 0.00 2.90 0.66 96 1007.9
20220525105918 15 302 4.8 11.3 0.00 2.90 0.66 96 1007.7
20220525105415 15 298 4.8 11.3 0.00 2.90 0.66 96 1007.7
20220525104914 15 295 4.8 11.3 0.00 2.90 0.66 96 1007.9
20220525104414 15 288 4.8 11.3 0.00 2.90 0.66 96 1007.8
20220525103916 15 285 3.2 6.4 0.00 2.90 0.66 96 1007.9
20220525103413 15 302 3.2 8.0 0.00 2.90 0.66 96 1008.0
20220525102910 15 288 3.2 8.0 0.00 2.90 0.66 96 1008.1
20220525102408 15 254 3.2 8.0 0.00 2.90 0.66 96 1008.1
20220525101909 15 241 3.2 8.0 0.00 2.90 0.66 96 1008.2
20220525101403 15 211 1.6 4.8 0.00 2.90 0.66 96 1008.2
20220525100903 16 209 3.2 4.8 0.00 2.90 0.66 96 1008.2
20220525100404 16 202 3.2 4.8 0.00 2.90 0.66 96 1008.2
20220525095903 16 233 3.2 4.8 0.00 2.90 0.66 96 1008.1
20220525095403 16 227 3.2 6.4 0.00 2.90 0.66 96 1008.0
20220525094904 16 226 3.2 6.4 0.00 2.90 0.66 96 1007.9
20220525094401 16 232 3.2 11.3 0.00 2.90 0.66 96 1007.9
20220525093858 16 209 4.8 11.3 0.00 2.90 0.66 96 1007.8
20220525093359 16 178 4.8 11.3 0.00 2.90 0.66 96 1007.7
20220525092857 16 235 8.0 20.9 0.00 2.90 0.66 96 1007.3
20220525092357 16 267 9.7 20.9 0.00 2.90 0.66 96 1007.5
20220525091855 16 274 9.7 27.4 0.00 2.90 0.66 96 1007.5
20220525091356 16 337 12.9 27.4 0.00 2.90 0.66 96 1007.0
20220525090853 16 273 12.9 27.4 0.00 2.90 0.66 96 1007.1
20220525090355 15 295 9.7 27.4 0.00 2.90 0.66 96 1006.8
20220525085855 15 190 6.4 12.9 0.00 2.90 0.66 96 1005.1
20220525085354 15 188 6.4 14.5 0.00 2.90 0.66 96 1005.0
20220525084851 15 172 4.8 14.5 0.00 2.90 0.66 96 1004.9
20220525084354 15 118 6.4 14.5 0.00 2.90 0.66 96 1004.5
20220525083852 15 114 8.0 19.3 0.00 2.90 0.66 96 1004.3
20220525083352 15 86 9.7 20.9 0.00 2.90 0.66 96 1004.2
20220525082845 15 98 11.3 20.9 0.00 2.90 0.66 96 1003.9
20220525082343 15 74 12.9 24.1 0.00 2.90 0.66 96 1003.9
20220525081841 15 89 12.9 24.1 0.03 2.90 0.66 96 1003.3
20220525081341 16 74 11.3 22.5 0.03 2.90 0.66 95 1004.1
20220525080843 16 70 11.3 22.5 0.03 2.90 0.66 95 1005.3
20220525080341 16 76 9.7 22.5 0.03 2.90 0.66 95 1005.2
20220525075839 16 84 6.4 14.5 0.05 2.90 0.66 95 1006.4
20220525075341 16 137 4.8 14.5 0.08 2.90 0.66 95 1007.2
20220525074839 16 102 4.8 14.5 0.13 2.90 0.66 95 1007.5
20220525074338 16 132 6.4 12.9 0.18 2.90 0.66 95 1007.5
20220525073836 16 134 6.4 12.9 0.20 2.90 0.66 95 1007.5
20220525073336 16 146 8.0 17.7 0.25 2.90 0.66 95 1007.5
20220525072833 16 133 8.0 17.7 0.30 2.90 0.66 95 1007.2
20220525072334 16 79 9.7 20.9 0.33 2.90 0.66 95 1007.2
20220525071834 16 55 9.7 20.9 0.33 2.87 0.64 95 1007.2
20220525071335 16 54 11.3 29.0 0.33 2.87 0.64 95 1007.5
20220525070832 16 70 16.1 29.0 0.36 2.87 0.64 95 1007.7
20220525070332 16 73 16.1 29.0 0.38 2.87 0.64 95 1007.7
20220525065826 16 42 14.5 29.0 0.36 2.84 0.61 95 1008.0
20220525065323 16 53 11.3 19.3 0.33 2.82 0.58 95 1008.3
20220525064823 16 71 8.0 16.1 0.28 2.77 0.53 95 1009.3
20220525064324 16 54 4.8 11.3 0.25 2.72 0.48 95 1009.9
20220525063823 16 65 1.6 4.8 0.23 2.69 0.46 95 1010.7
20220525063323 16 157 1.6 6.4 0.20 2.64 0.41 95 1011.4
20220525062823 16 157 1.6 6.4 0.15 2.59 0.38 95 1011.4
20220525062325 16 157 3.2 12.9 0.18 2.57 0.36 95 1011.4
20220525061824 16 157 3.2 12.9 0.20 2.54 0.33 95 1011.1
20220525061320 16 186 3.2 12.9 0.23 2.54 0.30 94 1011.0
20220525060821 16 40 4.8 12.9 0.23 2.51 0.28 94 1010.2
20220525060319 16 17 6.4 19.3 0.23 2.49 0.28 94 1009.5
20220525055819 16 304 8.0 19.3 0.25 2.49 0.25 94 1009.2
20220525055321 16 341 9.7 19.3 0.28 2.49 0.25 94 1008.9
20220525054821 16 308 8.0 19.3 0.33 2.49 0.25 94 1008.9
20220525054323 16 355 8.0 24.1 0.38 2.46 0.23 94 1008.8
20220525053821 16 19 9.7 24.1 0.43 2.46 0.23 94 1008.7
20220525053321 16 350 12.9 32.2 0.48 2.44 0.20 94 1008.5
20220525052818 16 5 14.5 32.2 0.58 2.44 0.20 94 1008.6
20220525052316 16 0 16.1 32.2 0.74 2.39 0.15 94 1008.3
20220525051817 16 340 17.7 35.4 0.94 2.34 0.10 94 1008.5
20220525051316 16 325 19.3 40.2 1.50 2.31 0.08 94 1008.2
20220525050817 16 318 19.3 40.2 2.06 2.29 0.05 94 1007.9
20220525050315 16 312 20.9 40.2 2.26 2.26 0.05 93 1007.5
20220525045815 16 351 24.1 43.5 2.24 2.24 2.24 93 1007.0
20220525045318 16 317 20.9 43.5 2.21 2.21 2.21 93 1006.8
20220525044818 16 48 19.3 38.6 2.16 2.16 2.18 93 1007.1
20220525044311 16 327 19.3 40.2 2.08 2.08 2.08 93 1007.3
20220525043811 16 355 17.7 40.2 2.03 2.03 2.03 92 1007.3
20220525043312 16 355 17.7 40.2 1.96 1.96 1.98 91 1007.9
20220525042814 16 23 19.3 57.9 1.85 1.85 1.85 90 1006.3
20220525042311 16 344 22.5 57.9 1.65 1.65 1.65 89 1006.3
20220525041812 16 325 29.0 57.9 1.40 1.40 1.45 86 1007.1
20220525041311 18 323 29.0 57.9 0.81 0.81 0.89 79 1006.5
20220525040810 22 329 22.5 49.9 0.23 0.23 0.30 69 1007.7
20220525040312 25 286 12.9 30.6 0.00 0.00 0.00 62 1007.5
20220525035810 25 323 11.3 19.3 0.00 0.00 0.00 69 1006.2
20220525035307 25 55 12.9 19.3 0.00 0.00 0.00 69 1004.6
20220525034807 25 49 9.7 17.7 0.00 0.00 0.00 69 1004.7
20220525034307 25 51 9.7 17.7 0.00 0.00 0.00 70 1004.6
20220525033807 25 51 9.7 17.7 0.00 0.00 0.00 69 1004.5
20220525033311 25 31 9.7 17.7 0.00 0.00 0.00 69 1004.2
20220525032808 25 70 8.0 17.7 0.00 0.00 0.00 69 1004.1
20220525032311 25 67 8.0 12.9 0.00 0.00 0.00 70 1003.9
20220525031808 25 52 4.8 12.9 0.00 0.00 0.00 70 1003.7
20220525031304 25 71 6.4 12.9 0.00 0.00 0.00 70 1003.8
20220525030806 25 99 6.4 12.9 0.00 0.00 0.00 70 1003.5
20220525030303 25 62 4.8 12.9 0.00 0.00 0.00 69 1003.3
20220525025802 25 71 4.8 12.9 0.00 0.00 0.00 69 1003.3
20220525025306 25 109 4.8 12.9 0.00 0.00 0.00 69 1003.1
20220525024803 25 101 4.8 12.9 0.00 0.00 0.00 68 1003.0
20220525024304 25 86 4.8 12.9 0.00 0.00 0.00 68 1003.0
20220525023802 25 78 4.8 14.5 0.00 0.00 0.00 68 1003.2
20220525023304 25 110 4.8 14.5 0.00 0.00 0.00 68 1003.2
20220525022803 25 111 4.8 9.7 0.00 0.00 0.00 67 1003.2
20220525022305 25 130 4.8 12.9 0.00 0.00 0.00 66 1003.3
20220525021803 25 125 4.8 12.9 0.00 0.00 0.00 66 1003.0
20220525021303 26 133 6.4 12.9 0.00 0.00 0.00 66 1002.9
20220525020804 26 128 4.8 12.9 0.00 0.00 0.00 65 1003.2
20220525020304 26 91 4.8 9.7 0.00 0.00 0.00 65 1003.1
20220525015804 26 91 3.2 9.7 0.00 0.00 0.00 65 1003.1
20220525015303 26 104 1.6 9.7 0.00 0.00 0.00 64 1003.3
20220525014803 26 103 1.6 12.9 0.00 0.00 0.00 64 1003.4
20220525014306 26 88 3.2 12.9 0.00 0.00 0.00 64 1003.5
20220525013803 26 84 4.8 14.5 0.00 0.00 0.00 63 1003.3
20220525013305 26 78 4.8 14.5 0.00 0.00 0.00 63 1003.1
20220525012807 26 96 4.8 14.5 0.00 0.00 0.00 63 1003.0
20220525012259 26 115 4.8 22.5 0.00 0.00 0.00 62 1003.0
20220525011801 26 109 4.8 22.5 0.00 0.00 0.00 62 1002.8
20220525011259 26 139 6.4 22.5 0.00 0.00 0.00 62 1002.6
20220525010801 26 119 6.4 22.5 0.00 0.00 0.00 61 1002.5
20220525010300 27 107 6.4 20.9 0.00 0.00 0.00 61 1002.3
20220525005758 27 141 9.7 20.9 0.00 0.00 0.00 61 1002.3
20220525005302 27 174 11.3 22.5 0.00 0.00 0.00 60 1002.1
20220525004801 27 143 11.3 22.5 0.00 0.00 0.00 60 1002.3
20220525004300 27 150 11.3 20.9 0.00 0.00 0.00 60 1002.5
20220525003758 27 165 11.3 27.4 0.00 0.00 0.00 59 1002.4
20220525003300 27 113 9.7 27.4 0.00 0.00 0.00 58 1002.3
20220525002759 27 131 9.7 27.4 0.00 0.00 0.00 58 1002.4
20220525002259 27 155 11.3 27.4 0.00 0.00 0.00 58 1002.2
20220525001758 27 141 11.3 25.7 0.00 0.00 0.00 58 1002.1
20220525001259 28 182 12.9 25.7 0.00 0.00 0.00 58 1002.1
20220525000756 28 155 11.3 25.7 0.00 0.00 0.00 57 1002.0
20220525000259 28 166 12.9 25.7 0.00 0.00 0.00 56 1001.7
20220524235756 28 155 14.5 22.5 0.00 0.00 0.00 56 1001.7
20220524235256 28 123 12.9 25.7 0.00 0.00 0.00 56 1001.8
20220524234759 28 153 12.9 25.7 0.00 0.00 0.00 56 1002.0
20220524234257 28 159 11.3 25.7 0.00 0.00 0.00 55 1001.9
20220524233757 28 107 11.3 25.7 0.00 0.00 0.00 54 1002.1
20220524233256 28 84 11.3 24.1 0.00 0.00 0.00 54 1002.3
20220524232757 28 169 11.3 22.5 0.00 0.00 0.00 54 1002.3
20220524232257 28 140 11.3 22.5 0.00 0.00 0.00 55 1002.4
20220524231753 28 113 11.3 20.9 0.00 0.00 0.00 55 1002.4
20220524231250 28 92 11.3 25.7 0.00 0.00 0.00 54 1002.5
20220524230752 28 115 11.3 25.7 0.00 0.00 0.00 55 1002.4
20220524230248 28 143 11.3 25.7 0.00 0.00 0.00 55 1002.3
20220524225749 29 142 11.3 25.7 0.00 0.00 0.00 54 1002.4
20220524225249 29 113 9.7 24.1 0.00 0.00 0.00 54 1002.5
20220524224750 29 150 9.7 22.5 0.00 0.00 0.00 54 1002.5
20220524224249 29 127 11.3 22.5 0.00 0.00 0.00 55 1002.5
20220524223748 29 107 11.3 20.9 0.00 0.00 0.00 55 1002.5
20220524223246 29 138 11.3 22.5 0.00 0.00 0.00 55 1002.6
20220524222742 29 71 9.7 22.5 0.00 0.00 0.00 55 1002.6
20220524222246 29 121 11.3 22.5 0.00 0.00 0.00 55 1002.7
20220524221742 29 80 12.9 24.1 0.00 0.00 0.00 55 1002.9
20220524221240 29 125 12.9 30.6 0.00 0.00 0.00 55 1003.1
20220524220740 29 149 12.9 30.6 0.00 0.00 0.00 54 1003.2
20220524220242 29 142 11.3 27.4 0.00 0.00 0.00 54 1003.5
20220524215740 30 161 9.7 27.4 0.00 0.00 0.00 53 1003.5
20220524215237 30 163 9.7 22.5 0.00 0.00 0.00 52 1003.6
20220524214740 29 184 8.0 22.5 0.00 0.00 0.00 53 1003.7
20220524214239 29 138 9.7 20.9 0.00 0.00 0.00 53 1003.8
20220524213737 29 141 9.7 20.9 0.00 0.00 0.00 55 1003.9
20220524213238 29 101 11.3 20.9 0.00 0.00 0.00 55 1004.2
20220524212736 29 122 9.7 20.9 0.00 0.00 0.00 54 1004.2
20220524212237 28 186 9.7 20.9 0.00 0.00 0.00 54 1004.3
20220524211733 29 155 11.3 27.4 0.00 0.00 0.00 54 1004.4
20220524211233 29 175 11.3 27.4 0.00 0.00 0.00 53 1004.5
20220524210730 29 183 11.3 27.4 0.00 0.00 0.00 54 1004.5
20220524210232 29 136 11.3 27.4 0.00 0.00 0.00 53 1004.6
20220524205732 29 150 9.7 22.5 0.00 0.00 0.00 54 1004.6
20220524205229 29 177 9.7 27.4 0.00 0.00 0.00 55 1004.7
20220524204728 29 170 11.3 27.4 0.00 0.00 0.00 56 1004.7
20220524204221 28 132 12.9 27.4 0.00 0.00 0.00 56 1004.7
20220524203722 28 175 12.9 27.4 0.00 0.00 0.00 56 1004.6
20220524203220 28 147 11.3 24.1 0.00 0.00 0.00 55 1004.7
20220524202720 28 151 12.9 24.1 0.00 0.00 0.00 54 1004.8
20220524202223 28 161 11.3 24.1 0.00 0.00 0.00 57 1005.0
20220524201720 28 182 11.3 29.0 0.00 0.00 0.00 56 1005.0
20220524201220 28 151 11.3 29.0 0.00 0.00 0.00 57 1005.1
20220524200723 28 188 12.9 27.4 0.00 0.00 0.00 58 1005.1
20220524200217 27 162 14.5 27.4 0.00 0.00 0.00 58 1005.2
20220524195716 27 182 14.5 27.4 0.00 0.00 0.00 58 1005.2
20220524195217 27 154 11.3 27.4 0.00 0.00 0.00 58 1005.3
20220524194718 27 164 12.9 25.7 0.00 0.00 0.00 58 1005.3
20220524194213 28 134 12.9 25.7 0.00 0.00 0.00 56 1005.3
20220524193714 28 94 9.7 24.1 0.00 0.00 0.00 56 1005.5
20220524193215 28 142 9.7 24.1 0.00 0.00 0.00 56 1005.5
20220524192717 28 148 11.3 24.1 0.00 0.00 0.00 55 1005.3
20220524192217 28 142 11.3 24.1 0.00 0.00 0.00 55 1005.3
20220524191713 28 155 11.3 22.5 0.00 0.00 0.00 55 1005.3
20220524191213 28 178 9.7 22.5 0.00 0.00 0.00 54 1005.4
20220524190709 28 129 9.7 25.7 0.00 0.00 0.00 55 1005.4
20220524190210 28 174 12.9 25.7 0.00 0.00 0.00 55 1005.4
20220524185709 28 148 12.9 25.7 0.00 0.00 0.00 56 1005.5
20220524185210 28 126 11.3 25.7 0.00 0.00 0.00 56 1005.5
20220524184711 28 151 11.3 22.5 0.00 0.00 0.00 55 1005.5
20220524184209 28 112 11.3 27.4 0.00 0.00 0.00 57 1005.6
20220524183709 28 152 11.3 27.4 0.00 0.00 0.00 56 1005.5
20220524183208 28 162 11.3 25.7 0.00 0.00 0.00 57 1005.6
20220524182709 28 117 12.9 25.7 0.00 0.00 0.00 56 1005.6
20220524182209 28 140 12.9 22.5 0.00 0.00 0.00 56 1005.6
20220524181710 28 113 12.9 29.0 0.00 0.00 0.00 57 1005.6
20220524181208 28 196 12.9 29.0 0.00 0.00 0.00 56 1005.7
20220524180708 28 202 14.5 29.0 0.00 0.00 0.00 56 1005.6
20220524180209 28 129 12.9 29.0 0.00 0.00 0.00 57 1005.7
20220524175709 28 125 12.9 25.7 0.00 0.00 0.00 56 1005.6
20220524175209 28 156 12.9 25.7 0.00 0.00 0.00 56 1005.8
20220524174710 27 98 14.5 30.6 0.00 0.00 0.00 57 1005.8
20220524174206 27 105 14.5 30.6 0.00 0.00 0.00 58 1005.8
20220524173700 27 107 14.5 30.6 0.00 0.00 0.00 56 1005.7
20220524173204 28 129 11.3 30.6 0.00 0.00 0.00 56 1005.5
20220524172700 28 85 9.7 24.1 0.00 0.00 0.00 57 1005.5
20220524172159 28 132 12.9 27.4 0.00 0.00 0.00 58 1005.5
20220524171704 27 136 14.5 27.4 0.00 0.00 0.00 58 1005.6
20220524171201 27 134 12.9 24.1 0.00 0.00 0.00 58 1005.8
20220524170701 28 128 9.7 22.5 0.00 0.00 0.00 57 1005.9
20220524170200 27 92 11.3 25.7 0.00 0.00 0.00 59 1005.9
20220524165704 27 126 12.9 25.7 0.00 0.00 0.00 58 1006.0
20220524165202 27 177 12.9 25.7 0.00 0.00 0.00 60 1006.0
20220524164702 27 173 12.9 25.7 0.00 0.00 0.00 60 1006.1
20220524164159 27 79 11.3 22.5 0.00 0.00 0.00 62 1006.1
20220524163659 27 142 9.7 25.7 0.00 0.00 0.00 63 1006.2
20220524163158 27 147 11.3 25.7 0.00 0.00 0.00 63 1006.2
20220524162658 27 133 11.3 22.5 0.00 0.00 0.00 63 1006.4
20220524162159 27 130 8.0 19.3 0.00 0.00 0.00 63 1006.5
20220524161657 27 154 8.0 19.3 0.00 0.00 0.00 63 1006.6
20220524161159 27 158 8.0 19.3 0.00 0.00 0.00 65 1006.6
20220524160654 26 145 9.7 22.5 0.00 0.00 0.00 66 1006.8
20220524160154 26 168 9.7 22.5 0.00 0.00 0.00 66 1006.9
20220524155655 26 163 9.7 17.7 0.00 0.00 0.00 67 1006.9
20220524155151 26 174 8.0 17.7 0.00 0.00 0.00 68 1006.9
20220524154653 26 203 6.4 17.7 0.00 0.00 0.00 70 1007.0
20220524154153 26 167 8.0 19.3 0.00 0.00 0.00 73 1007.0
20220524153652 25 161 9.7 19.3 0.00 0.00 0.00 74 1007.0
20220524153152 25 186 9.7 19.3 0.00 0.00 0.00 76 1006.9
20220524152653 25 161 9.7 20.9 0.00 0.00 0.00 77 1006.9
20220524152147 25 135 9.7 20.9 0.00 0.00 0.00 78 1007.0
20220524151650 24 175 9.7 19.3 0.00 0.00 0.00 81 1007.1
20220524151149 24 151 9.7 19.3 0.00 0.00 0.00 80 1007.1
20220524150650 24 146 9.7 19.3 0.00 0.00 0.00 83 1007.1
20220524150149 23 152 9.7 19.3 0.00 0.00 0.00 84 1007.1
20220524145655 23 115 8.0 19.3 0.00 0.00 0.00 86 1007.2
20220524145151 23 129 9.7 16.1 0.00 0.00 0.00 87 1007.3
20220524144649 23 135 9.7 16.1 0.00 0.00 0.00 88 1007.3
20220524144150 23 155 8.0 16.1 0.00 0.00 0.00 88 1007.5
20220524143645 23 181 6.4 14.5 0.00 0.00 0.00 90 1007.3
20220524143148 23 167 6.4 14.5 0.00 0.00 0.00 91 1007.5
20220524142647 22 178 6.4 14.5 0.00 0.00 0.00 92 1007.5
20220524142146 22 153 4.8 11.3 0.00 0.00 0.00 92 1007.5
20220524141644 22 142 4.8 11.3 0.00 0.00 0.00 93 1007.5
20220524141146 22 148 4.8 11.3 0.00 0.00 0.00 93 1007.5
20220524140651 22 148 4.8 12.9 0.00 0.00 0.00 93 1007.3
20220524140146 22 134 4.8 12.9 0.00 0.00 0.00 93 1007.3
20220524135648 22 138 4.8 12.9 0.00 0.00 0.00 93 1007.5
20220524135142 22 123 4.8 11.3 0.00 0.00 0.00 94 1007.6
20220524134641 21 139 4.8 11.3 0.00 0.00 0.00 94 1007.6
20220524134142 21 105 3.2 11.3 0.00 0.00 0.00 94 1007.7
20220524133643 21 86 3.2 12.9 0.00 0.00 0.00 94 1007.5
20220524133140 21 118 4.8 12.9 0.00 0.00 0.00 94 1007.5
20220524132641 21 94 4.8 12.9 0.00 0.00 0.00 94 1007.2
20220524132142 21 136 4.8 12.9 0.00 0.00 0.00 94 1007.1
20220524131642 21 124 4.8 12.9 0.00 0.00 0.00 94 1007.0
20220524131144 21 123 4.8 12.9 0.00 0.00 0.00 94 1006.8
20220524130641 21 115 6.4 12.9 0.00 0.00 0.00 94 1006.7